Tiempo atmosférico en la estación meteorológica de Mutriku, Gipuzkoa (150 m.)



Fecha
DESCASC
Temp. máxima en grados centígrados (hora)
DESCASC
Temp. mínima en grados centígrados (hora)
DESCASC
Temp. media en grados centígrados
DESCASC
Racha de viento máxima en m/sg (hora)
DESCASC
Velocidad máxima media en intervalos de 10 minutos(hora)
DESCASC
Precipitaciones diarias en mm
DESCASC
Precipitaciones de 00:00 a 06:00 en mm
DESCASC
Precipitaciones de 06:00 a 12:00 en mm
DESCASC
Precipitaciones de 12:00 a 18:00 en mm
DESCASC
Precipitaciones de 18:00 a 24:00 en mm
DESCASC
22-11-2020 15.1 (15:50) 8.1 (00:00) 11.6 5.28 (22:50) 3.33 (22:00) 0 0 0 0 0
21-11-2020 12.2 (16:00) 6.6 (05:50) 9.4 5.83 (00:30) 3.33 (00:30) 0 0 0 0 0
20-11-2020 13.3 (13:20) 8.6 (23:59) 11 7.78 (08:10) 4.17 (07:50) 1 0.8 0.2 0 0
19-11-2020 16.7 (00:00) 9.9 (00:00) 13.3 9.44 (05:10) 6.11 (05:10) 5.4 0 5 0.4 0
18-11-2020 23.5 (14:30) 16.1 (00:00) 19.8 14.17 (05:40) 7.78 (05:00) 0 0 0 0 0
17-11-2020 19.6 (23:59) 10.7 (00:00) 15.2 10.83 (23:59) 6.11 (23:59) 0 0 0 0 0
16-11-2020 15.2 (14:30) 11.2 (00:00) 13.2 9.17 (02:40) 5.56 (02:50) 1 1 0 0 0
15-11-2020 22.2 (14:00) 12.8 (00:00) 17.5 17.5 (14:20) 10.28 (14:30) 3.4 0 0 0 3.4
14-11-2020 20 (14:30) 13.1 (00:00) 16.6 17.5 (12:20) 9.72 (12:30) 0 0 0 0 0
13-11-2020 20.8 (14:30) 14.1 (00:00) 17.4 13.33 (06:20) 6.67 (08:20) 0 0 0 0 0
12-11-2020 19.5 (12:50) 15.1 (00:00) 17.3 10 (00:20) 5.83 (00:10) 0 0 0 0 0
11-11-2020 19.3 (15:30) 11.9 (00:00) 15.6 11.94 (09:30) 6.39 (14:20) 0 0 0 0 0
10-11-2020 15.5 (15:50) 11.9 (00:00) 13.7 6.11 (00:20) 3.06 (01:50) 5.6 3.2 2.4 0 0
09-11-2020 20.7 (15:20) 13.8 (00:00) 17.3 11.11 (00:40) 5.83 (07:20) 0 0 0 0 0
08-11-2020 20.5 (16:00) 16.1 (00:00) 18.3 12.22 (07:40) 6.11 (07:40) 0 0 0 0 0
07-11-2020 20.3 (00:10) 14.5 (00:00) 17.4 19.44 (00:40) 7.22 (00:10) 14.8 0 14.8 0 0
06-11-2020 20.8 (14:10) 14.5 (00:00) 17.6 -- (--) -- (--) 0 0 0 0 0
05-11-2020 14.9 (23:50) 8.2 (00:00) 11.5 8.33 (00:10) 4.72 (00:10) 0 0 0 0 0
04-11-2020 12.9 (11:30) 8.1 (00:00) 10.5 10.83 (20:10) 5.83 (23:40) 2.6 2 0.6 0 0
03-11-2020 13.1 (11:20) 8.6 (00:00) 10.9 10.28 (13:20) 6.11 (13:30) 11.6 6.2 0.4 3.6 1.4
02-11-2020 24.2 (14:40) 12.2 (00:00) 18.2 24.17 (15:20) 11.94 (15:20) 1.2 0 0 0 1.2
01-11-2020 24.9 (14:20) 19.1 (00:00) 22 13.06 (07:20) 7.22 (10:00) 0 0 0 0 0
31-10-2020 24.4 (15:10) 12.2 (00:00) 18.3 12.22 (20:50) 6.39 (20:50) 0 0 0 0 0
30-10-2020 16.7 (15:10) 12.3 (00:00) 14.5 4.72 (04:00) 2.78 (23:10) 0 0 0 0 0
29-10-2020 18.5 (13:00) 13.4 (00:00) 15.9 4.72 (11:20) 2.78 (13:30) 0 0 0 0 0
28-10-2020 16.3 (13:00) 13.1 (00:00) 14.7 7.22 (06:10) 3.61 (06:00) 0.2 0 0.2 0 0

Gráficas

Temp. máximas Temp. mínimas Temp. medias Precipitaciones Rachas de viento máximas Velocidades máximas media en intervalos de 10 minutos

Datos horarios

Fecha y hora oficial Temperatura (ºC) Velocidad del viento (km/h) Dirección del viento Racha (km/h) Dirección de racha Precipitación (mm) Presión (hPa) Tendencia (hPa) Humedad (%)
2020-11-26 23:00:00 16.4 9 Sudeste 32 Sur 0 -- -- 59
2020-11-26 22:00:00 16 13 Sudeste 33 Este 0 -- -- 60
2020-11-26 21:00:00 15.7 10 Sudeste 36 Sudoeste 0 -- -- 60
2020-11-26 20:00:00 15.8 6 Sudeste 24 Este 0 -- -- 59
2020-11-26 19:00:00 16.1 9 Sur 22 Sudeste 0 -- -- 59
2020-11-26 18:00:00 16.5 11 Sudeste 34 Sudeste 0 -- -- 57
2020-11-26 17:00:00 16.5 16 Sudeste 32 Este 0 -- -- 57
2020-11-26 16:00:00 17.5 8 Sudeste 30 Sudeste 0 -- -- 54
2020-11-26 15:00:00 17.4 12 Sudeste 42 Sudeste 0 -- -- 55
2020-11-26 14:00:00 17.1 11 Sudeste 29 Sur 0 -- -- 56
2020-11-26 13:00:00 17.1 17 Sur 36 Sur 0 -- -- 54
2020-11-26 12:00:00 17.6 9 Sudeste 25 Este 0 -- -- 53
2020-11-26 11:00:00 16.9 10 Este 30 Este 0 -- -- 55
2020-11-26 10:00:00 15.6 14 Sudeste 32 Sudeste 0 -- -- 59
2020-11-26 09:00:00 14.9 15 Sudeste 48 Este 0 -- -- 60
2020-11-26 08:00:00 14.7 11 Este 42 Sur 0 -- -- 60
2020-11-26 07:00:00 14.4 18 Sudeste 43 Sudeste 0 -- -- 60
2020-11-26 06:00:00 14 11 Sudeste 37 Sur 0 -- -- 61
2020-11-26 05:00:00 14.1 13 Sudeste 35 Sudeste 0 -- -- 60
2020-11-26 04:00:00 14 15 Sudeste 32 Sudeste 0 -- -- 61
2020-11-26 03:00:00 14 16 Sudeste 35 Sudeste 0 -- -- 61
2020-11-26 02:00:00 13.9 11 Sudeste 27 Sudeste 0 -- -- 61
2020-11-26 01:00:00 13.8 11 Sudeste 21 Sudeste 0 -- -- 60
2020-11-26 00:00:00 13.9 10 Sudeste 28 Sudeste 0 -- -- 57
2020-11-25 23:00:00 13.7 10 Sudeste 24 Sudeste 0 -- -- 59
2020-11-25 22:00:00 13.8 8 Sudeste 28 Sur 0 -- -- 59
2020-11-25 21:00:00 13.3 14 Sudeste 23 Sudeste 0 -- -- 60
2020-11-25 20:00:00 13.3 10 Este 30 Sudeste 0 -- -- 59
2020-11-25 19:00:00 13.6 8 Sudeste 21 Sur 0 -- -- 57
2020-11-25 18:00:00 13.7 5 Sudeste 15 Sudeste 0 -- -- 55
2020-11-25 17:00:00 15 5 Sudeste 21 Sur 0 -- -- 51
2020-11-25 16:00:00 15.9 4 Este 24 Sur 0 -- -- 50
2020-11-25 15:00:00 15.4 13 Sur 31 Sudeste 0 -- -- 51
2020-11-25 14:00:00 15.5 10 Sudeste 24 Sur 0 -- -- 51
2020-11-25 13:00:00 15 9 Sudeste 26 Sur 0 -- -- 54
2020-11-25 12:00:00 14.4 12 Sur 25 Sur 0 -- -- 57
2020-11-25 11:00:00 13.7 6 Sur 19 Sur 0 -- -- 60
2020-11-25 10:00:00 12.3 8 Sudeste 22 Sudeste 0 -- -- 65
2020-11-25 09:00:00 10.9 6 Sudeste 22 Sudeste 0 -- -- 68
2020-11-25 08:00:00 10.7 6 Sudeste 21 Sudeste 0 -- -- 69
2020-11-25 07:00:00 10.6 7 Sudeste 18 Sudeste 0 -- -- 69
2020-11-25 06:00:00 11 6 Sudeste 19 Sur 0 -- -- 66
2020-11-25 05:00:00 11.3 7 Sudeste 17 Sudeste 0 -- -- 63
2020-11-25 04:00:00 11.8 9 Sudeste 18 Sudeste 0 -- -- 59
2020-11-25 03:00:00 13.2 5 Sur 22 Sudoeste 0 -- -- 53
2020-11-25 02:00:00 13.7 9 Sudeste 37 Sudeste 0 -- -- 50
2020-11-25 01:00:00 12.8 8 Noroeste 32 Sur 0 -- -- 52
2020-11-25 00:00:00 12.9 10 Sudeste 23 Sudoeste 0 -- -- 52
2020-11-24 23:00:00 13.2 7 Sudeste 23 Sur 0 -- -- 50
2020-11-24 22:00:00 13.7 10 Sur 28 Sudoeste 0 -- -- 48
2020-11-24 21:00:00 13.4 6 Sur 21 Sur 0 -- -- 50
2020-11-24 20:00:00 13.9 9 Sur 20 Sudoeste 0 -- -- 49
2020-11-24 19:00:00 13.5 4 Sudeste 10 Sudoeste 0 -- -- 51
2020-11-24 18:00:00 14.5 3 Sudoeste 13 Sudeste 0 -- -- 50
2020-11-24 17:00:00 16.1 6 Sur 15 Oeste 0 -- -- 47
2020-11-24 16:00:00 16.6 5 Sur 19 Oeste 0 -- -- 46
2020-11-24 15:00:00 16.7 8 Sudoeste 21 Sudoeste 0 -- -- 47
2020-11-24 14:00:00 16.7 7 Sur 17 Sur 0 -- -- 44
2020-11-24 13:00:00 15.7 6 Sudoeste 24 Oeste 0 -- -- 42
2020-11-24 12:00:00 15.5 19 Sudoeste 44 Sudoeste 0 -- -- 42
2020-11-24 11:00:00 14.3 23 Sudoeste 44 Sudoeste 0 -- -- 44
2020-11-24 10:00:00 13.5 27 Oeste 43 Sudoeste 0 -- -- 45
2020-11-24 09:00:00 12.8 22 Sur 41 Sudoeste 0 -- -- 45
2020-11-24 08:00:00 11.6 9 Sur 28 Sur 0 -- -- 48
2020-11-24 07:00:00 11.2 9 Sudoeste 15 Sudoeste 0 -- -- 50
2020-11-24 06:00:00 11.2 5 Sudoeste 12 Sudoeste 0 -- -- 49
2020-11-24 05:00:00 10.8 0 Calma 8 Sur 0 -- -- 54
2020-11-24 04:00:00 10.3 2 Sudeste 6 Sudeste 0 -- -- 63
2020-11-24 03:00:00 10.3 2 Oeste 5 Oeste 0 -- -- 75
2020-11-24 02:00:00 9.7 2 Sudoeste 9 Oeste 0 -- -- 81
2020-11-24 01:00:00 10.2 2 Sudoeste 8 Sudeste 0 -- -- 73
2020-11-24 00:00:00 9.9 5 Sudeste 11 Sudeste 0 -- -- 80
2020-11-23 23:00:00 10.2 5 Sur 10 Sudeste 0 -- -- 82
2020-11-23 22:00:00 10.5 6 Sudeste 13 Sudeste 0 -- -- 85
2020-11-23 21:00:00 10.6 7 Sudeste 13 Sudeste 0 -- -- 87
2020-11-23 20:00:00 10.7 8 Sudeste 14 Sudeste 0 -- -- 87
2020-11-23 19:00:00 10.5 6 Sudeste 9 Sudeste 0 -- -- 86
2020-11-23 18:00:00 10.9 5 Sudeste 9 Este 0 -- -- 83
2020-11-23 17:00:00 12.5 6 Sudeste 10 Sudeste 0 -- -- 78
2020-11-23 16:00:00 13.9 5 Este 11 Este 0 -- -- 74
2020-11-23 15:00:00 14.7 6 Este 10 Este 0 -- -- 70
2020-11-23 14:00:00 14.3 6 Este 10 Este 0 -- -- 71
2020-11-23 13:00:00 14.2 6 Este 9 Este 0 -- -- 69
2020-11-23 12:00:00 14.4 5 Este 9 Este 0 -- -- 67
2020-11-23 11:00:00 13.4 2 Este 7 Sur 0 -- -- 69
2020-11-23 10:00:00 12.4 0 Calma 8 Sur 0 -- -- 73
2020-11-23 09:00:00 10.3 4 Sudoeste 10 Sur 0 -- -- 76
2020-11-23 08:00:00 10.1 5 Sudoeste 7 Sudoeste 0 -- -- 76
2020-11-23 07:00:00 9.9 5 Sudoeste 16 Sudoeste 0 -- -- 78
2020-11-23 06:00:00 9.8 10 Sudoeste 15 Sudoeste 0 -- -- 82
2020-11-23 05:00:00 9.7 11 Sudoeste 17 Sudoeste 0 -- -- 85
2020-11-23 04:00:00 10.2 12 Sudoeste 17 Sudoeste 0 -- -- 84
2020-11-23 03:00:00 10.3 10 Sudoeste 18 Sudoeste 0 -- -- 82
2020-11-23 02:00:00 10.3 10 Oeste 18 Oeste 0 -- -- 83
2020-11-23 01:00:00 10.7 11 Oeste 19 Sudoeste 0 -- -- 83
2020-11-23 00:00:00 10.8 10 Oeste 18 Oeste 0 -- -- 83
2020-11-22 23:00:00 11 11 Oeste 19 Oeste 0 -- -- 83
2020-11-22 22:00:00 10.9 12 Oeste 18 Sudoeste 0 -- -- 84
2020-11-22 21:00:00 11 10 Oeste 15 Oeste 0 -- -- 79
2020-11-22 20:00:00 11 5 Sudoeste 8 Sudoeste 0 -- -- 70
2020-11-22 19:00:00 10.8 2 Sur 3 Sur 0 -- -- 71
2020-11-22 18:00:00 11.3 2 Sur 3 Sudeste 0 -- -- 68
2020-11-22 17:00:00 13.9 2 Sudeste 4 Sudeste 0 -- -- 58
2020-11-22 16:00:00 15.1 3 Este 4 Este 0 -- -- 55
2020-11-22 15:00:00 14.3 3 Norte 5 Norte 0 -- -- 58
2020-11-22 14:00:00 14.4 2 Norte 6 Norte 0 -- -- 55
2020-11-22 13:00:00 14.9 5 Este 8 Este 0 -- -- 53
2020-11-22 12:00:00 13.9 3 Norte 5 Norte 0 -- -- 49
2020-11-22 11:00:00 13.4 0 Calma 5 Sudoeste 0 -- -- 51
2020-11-22 10:00:00 12.3 3 Sudeste 5 Este 0 -- -- 49
2020-11-22 09:00:00 10 2 Este 6 Sudoeste 0 -- -- 46
2020-11-22 08:00:00 10.1 3 Sudoeste 7 Sur 0 -- -- 45
2020-11-22 07:00:00 9.6 3 Sudeste 7 Sudeste 0 -- -- 46
2020-11-22 06:00:00 9.5 0 Calma 5 Este 0 -- -- 47
2020-11-22 05:00:00 9.6 0 Calma 6 Sudeste 0 -- -- 48
2020-11-22 04:00:00 9.7 3 Oeste 6 Oeste 0 -- -- 51
2020-11-22 03:00:00 8.9 3 Nordeste 6 Este 0 -- -- 57
2020-11-22 02:00:00 9.1 3 Oeste 6 Oeste 0 -- -- 59
2020-11-22 01:00:00 8.3 0 Calma 13 Sudeste 0 -- -- 69
2020-11-22 00:00:00 8.1 6 Sudeste 10 Sudeste 0 -- -- 76
2020-11-21 23:00:00 8.3 6 Sur 12 Sudeste 0 -- -- 74
2020-11-21 22:00:00 8.1 6 Sudeste 10 Este 0 -- -- 74
2020-11-21 21:00:00 8.5 5 Sur 10 Sudeste 0 -- -- 74
2020-11-21 20:00:00 8.5 6 Sur 13 Sur 0 -- -- 75
2020-11-21 19:00:00 8.4 8 Sur 11 Sur 0 -- -- 73
2020-11-21 18:00:00 8.9 5 Sudeste 12 Sudeste 0 -- -- 72
2020-11-21 17:00:00 10.8 8 Sudeste 12 Sudeste 0 -- -- 66
2020-11-21 16:00:00 12.2 3 Este 10 Este 0 -- -- 63
2020-11-21 15:00:00 11.4 3 Nordeste 6 Norte 0 -- -- 61
2020-11-21 14:00:00 11.1 3 Nordeste 12 Sudeste 0 -- -- 64
2020-11-21 13:00:00 11.2 6 Este 14 Este 0 -- -- 65
2020-11-21 12:00:00 10.7 9 Este 16 Este 0 -- -- 66
2020-11-21 11:00:00 10 9 Este 15 Este 0 -- -- 70
2020-11-21 10:00:00 9.1 8 Sudeste 15 Sudeste 0 -- -- 74
2020-11-21 09:00:00 6.8 6 Sur 10 Sur 0 -- -- 83
2020-11-21 08:00:00 6.8 3 Sur 8 Este 0 -- -- 81
2020-11-21 07:00:00 6.6 5 Nordeste 9 Nordeste 0 -- -- 82
2020-11-21 06:00:00 6.6 2 Este 4 Sur 0 -- -- 73
2020-11-21 05:00:00 6.7 0 Calma 5 Sudeste 0 -- -- 73
2020-11-21 04:00:00 6.9 3 Sur 8 Sur 0 -- -- 72
2020-11-21 03:00:00 7.1 4 Sur 12 Este 0 -- -- 74
2020-11-21 02:00:00 7.3 4 Sudeste 15 Este 0 -- -- 74
2020-11-21 01:00:00 7.9 10 Este 21 Este 0 -- -- 73
2020-11-21 00:00:00 8.6 9 Sudeste 21 Sudeste 0 -- -- 71
2020-11-20 23:00:00 9.1 7 Sudeste 14 Sudeste 0 -- -- 78
2020-11-20 22:00:00 9.6 2 Sudoeste 18 Noroeste 0 -- -- 76
2020-11-20 21:00:00 9.6 4 Norte 11 Este 0 -- -- 76
2020-11-20 20:00:00 10 3 Este 17 Este 0 -- -- 73
2020-11-20 19:00:00 10.2 9 Este 19 Este 0 -- -- 74
2020-11-20 18:00:00 10.1 7 Este 16 Nordeste 0 -- -- 75
2020-11-20 17:00:00 11.1 7 Este 17 Sudeste 0 -- -- 70
2020-11-20 16:00:00 12.2 6 Este 18 Sudeste 0 -- -- 66
2020-11-20 15:00:00 11.9 8 Este 18 Nordeste 0 -- -- 70
2020-11-20 14:00:00 12.8 8 Este 16 Nordeste 0 -- -- 68
2020-11-20 13:00:00 13 8 Este 17 Este 0 -- -- 73
2020-11-20 12:00:00 12.8 6 Este 14 Nordeste 0 -- -- 80
2020-11-20 11:00:00 10.7 0 Calma 12 Sudeste 0.2 -- -- 88
2020-11-20 10:00:00 11 5 Sudeste 20 Este 0 -- -- 86
2020-11-20 09:00:00 10.3 3 Sudoeste 28 Noroeste 0 -- -- 87
2020-11-20 08:00:00 10.1 10 Oeste 20 Oeste 0 -- -- 85
2020-11-20 07:00:00 10 11 Oeste 18 Oeste 0 -- -- 83
2020-11-20 06:00:00 9.5 9 Oeste 18 Oeste 0 -- -- 85
2020-11-20 05:00:00 9.9 10 Oeste 13 Oeste 0 -- -- 84
2020-11-20 04:00:00 9.8 6 Sudoeste 10 Sudoeste 0 -- -- 84
2020-11-20 03:00:00 9.9 6 Sudoeste 10 Sudoeste 0 -- -- 85
2020-11-20 02:00:00 10.2 7 Sudoeste 12 Sudoeste 0.8 -- -- 84
2020-11-20 01:00:00 10.4 6 Sudoeste 10 Oeste 0 -- -- 82
2020-11-20 00:00:00 11 5 Oeste 16 Oeste 0 -- -- 78
2020-11-19 23:00:00 10.7 7 Sur 24 Este 0 -- -- 85
2020-11-19 22:00:00 10.3 4 Oeste 8 Oeste 0 -- -- 88
2020-11-19 21:00:00 10.3 6 Oeste 11 Sudoeste 0 -- -- 88
2020-11-19 20:00:00 10 6 Sudoeste 14 Sudoeste 0 -- -- 89
2020-11-19 19:00:00 10.3 8 Sudoeste 14 Sudoeste 0 -- -- 90
2020-11-19 18:00:00 10.7 5 Oeste 12 Norte 0 -- -- 88
2020-11-19 17:00:00 11 3 Oeste 17 Norte 0 -- -- 88
2020-11-19 16:00:00 11.1 4 Noroeste 19 Oeste 0.2 -- -- 90
2020-11-19 15:00:00 12 4 Noroeste 19 Noroeste 0 -- -- 87
2020-11-19 14:00:00 12.3 8 Oeste 16 Norte 0 -- -- 92
2020-11-19 13:00:00 11.6 5 Noroeste 21 Noroeste 0.2 -- -- 95
2020-11-19 12:00:00 11.9 8 Noroeste 20 Oeste 0.8 -- -- 95
2020-11-19 11:00:00 12.1 0 Calma 15 Nordeste 0.4 -- -- 96
2020-11-19 10:00:00 12.3 6 Noroeste 22 Norte 0.8 -- -- 95
2020-11-19 09:00:00 13 10 Noroeste 26 Norte 1.4 -- -- 95
2020-11-19 08:00:00 13.9 10 Noroeste 24 Noroeste 1.4 -- -- 94
2020-11-19 07:00:00 14.7 3 Noroeste 13 Oeste 0.2 -- -- 92
2020-11-19 06:00:00 15.2 6 Noroeste 34 Noroeste 0 -- -- 88
2020-11-19 05:00:00 15.4 19 Oeste 30 Oeste 0 -- -- 82
2020-11-19 04:00:00 15.4 6 Sudoeste 10 Noroeste 0 -- -- 77
2020-11-19 03:00:00 14.9 0 Calma 8 Oeste 0 -- -- 77
2020-11-19 02:00:00 16.1 0 Calma 4 Sudeste 0 -- -- 73
2020-11-19 01:00:00 16.4 0 Calma 3 Sur 0 -- -- 73
2020-11-19 00:00:00 16.7 0 Calma 8 Sudoeste 0 -- -- 70
2020-11-18 23:00:00 16.5 2 Sudoeste 4 Oeste 0 -- -- 70
2020-11-18 22:00:00 16.1 0 Calma 9 Sudeste 0 -- -- 70
2020-11-18 21:00:00 16.2 6 Sudeste 12 Este 0 -- -- 67
2020-11-18 20:00:00 16.6 4 Este 13 Sudeste 0 -- -- 64
2020-11-18 19:00:00 17.2 9 Sudeste 16 Sudeste 0 -- -- 62
2020-11-18 18:00:00 17.9 6 Este 17 Este 0 -- -- 58
2020-11-18 17:00:00 19.7 9 Sudeste 13 Sudeste 0 -- -- 53
2020-11-18 16:00:00 21 3 Este 10 Norte 0 -- -- 52
2020-11-18 15:00:00 21.8 3 Nordeste 13 Nordeste 0 -- -- 52
2020-11-18 14:00:00 22.6 9 Sudoeste 20 Sudoeste 0 -- -- 48
2020-11-18 13:00:00 21.5 13 Sudoeste 29 Sudoeste 0 -- -- 51
2020-11-18 12:00:00 20.4 15 Sudoeste 35 Sudoeste 0 -- -- 52
2020-11-18 11:00:00 19.4 23 Sudoeste 41 Oeste 0 -- -- 52
2020-11-18 10:00:00 18.5 23 Sudoeste 43 Sudoeste 0 -- -- 53
2020-11-18 09:00:00 18 27 Oeste 44 Sudoeste 0 -- -- 51
2020-11-18 08:00:00 18.1 23 Sudoeste 45 Sudoeste 0 -- -- 50
2020-11-18 07:00:00 18.3 26 Sudoeste 47 Sudoeste 0 -- -- 47
2020-11-18 06:00:00 18.8 25 Sudoeste 51 Oeste 0 -- -- 45
2020-11-18 05:00:00 18.9 28 Sudoeste 49 Oeste 0 -- -- 43
2020-11-18 04:00:00 19 25 Sudoeste 46 Oeste 0 -- -- 41
2020-11-18 03:00:00 18.9 24 Sudoeste 45 Oeste 0 -- -- 41
2020-11-18 02:00:00 19.3 25 Sudoeste 45 Sudoeste 0 -- -- 40
2020-11-18 01:00:00 19.5 21 Sudoeste 44 Sudoeste 0 -- -- 40
2020-11-18 00:00:00 19.6 22 Sudoeste 39 Sudoeste 0 -- -- 41
2020-11-17 23:00:00 19 12 Sudoeste 19 Sudoeste 0 -- -- 45
2020-11-17 22:00:00 19 4 Sudoeste 23 Sudeste 0 -- -- 44
2020-11-17 21:00:00 19.4 9 Sur 35 Sur 0 -- -- 42
2020-11-17 20:00:00 18.9 8 Sur 25 Sudeste 0 -- -- 45
2020-11-17 19:00:00 17.9 7 Sur 17 Sudeste 0 -- -- 50
2020-11-17 18:00:00 15.5 7 Sudeste 13 Sudeste 0 -- -- 71
2020-11-17 17:00:00 15.3 5 Sudeste 12 Este 0 -- -- 76
2020-11-17 16:00:00 15.6 6 Sudeste 17 Sudeste 0 -- -- 75
2020-11-17 15:00:00 15.5 10 Sudeste 15 Sudeste 0 -- -- 73
2020-11-17 14:00:00 15.4 9 Sudeste 12 Sudeste 0 -- -- 68
2020-11-17 13:00:00 15.5 6 Sudeste 14 Este 0 -- -- 68
2020-11-17 12:00:00 14.9 8 Este 17 Sudeste 0 -- -- 67
2020-11-17 11:00:00 14.2 2 Noroeste 9 Noroeste 0 -- -- 67
2020-11-17 10:00:00 13.7 0 Calma 9 Sudeste 0 -- -- 64
2020-11-17 09:00:00 11.1 6 Sudeste 9 Sudeste 0 -- -- 72
2020-11-17 08:00:00 10.8 0 Calma 5 Sudeste 0 -- -- 72
2020-11-17 07:00:00 11.2 4 Nordeste 5 Nordeste 0 -- -- 71
2020-11-17 06:00:00 10.8 2 Este 9 Este 0 -- -- 73
2020-11-17 05:00:00 10.9 4 Sudeste 6 Este 0 -- -- 71
2020-11-17 04:00:00 10.8 4 Sudeste 9 Sudeste 0 -- -- 73
2020-11-17 03:00:00 10.9 2 Sudeste 4 Sudeste 0 -- -- 72
2020-11-17 02:00:00 11.3 3 Oeste 5 Sudeste 0 -- -- 72
2020-11-17 01:00:00 11.4 2 Sur 11 Sur 0 -- -- 72
2020-11-17 00:00:00 11.3 3 Sudeste 9 Sudeste 0 -- -- 74
2020-11-16 23:00:00 11.6 6 Sudeste 11 Sudeste 0 -- -- 73
2020-11-16 22:00:00 11.6 6 Sudeste 10 Sudeste 0 -- -- 77
2020-11-16 21:00:00 11.7 6 Sudeste 10 Sudeste 0 -- -- 78
2020-11-16 20:00:00 11.7 5 Sur 8 Sur 0 -- -- 80
2020-11-16 19:00:00 12.2 4 Sudeste 6 Sudeste 0 -- -- 84
2020-11-16 18:00:00 13 4 Sudeste 6 Este 0 -- -- 82
2020-11-16 17:00:00 14.4 3 Sudeste 8 Este 0 -- -- 77
2020-11-16 16:00:00 14.9 6 Este 8 Sudeste 0 -- -- 77
2020-11-16 15:00:00 14.9 3 Sudeste 6 Este 0 -- -- 75
2020-11-16 14:00:00 14.8 0 Calma 8 Nordeste 0 -- -- 79
2020-11-16 13:00:00 15 2 Norte 11 Oeste 0 -- -- 75
2020-11-16 12:00:00 14.9 4 Sudoeste 12 Sudoeste 0 -- -- 77
2020-11-16 11:00:00 13.2 9 Sudoeste 21 Sudoeste 0 -- -- 83
2020-11-16 10:00:00 12.2 15 Sudoeste 24 Sudoeste 0 -- -- 88
2020-11-16 09:00:00 12.3 8 Sudoeste 14 Sudoeste 0 -- -- 85
2020-11-16 08:00:00 12.1 8 Oeste 18 Sudoeste 0 -- -- 86
2020-11-16 07:00:00 12 13 Sudoeste 22 Sudoeste 0 -- -- 87
2020-11-16 06:00:00 11.7 14 Sudoeste 28 Oeste 0 -- -- 90
2020-11-16 05:00:00 11.6 15 Oeste 28 Noroeste 0.2 -- -- 91
2020-11-16 04:00:00 11.8 12 Oeste 24 Oeste 0 -- -- 92
2020-11-16 03:00:00 11.5 16 Noroeste 33 Noroeste 0.8 -- -- 93
2020-11-16 02:00:00 13 4 Noroeste 20 Sudoeste 0 -- -- 87
2020-11-16 01:00:00 13.1 13 Sudoeste 20 Sudoeste 0 -- -- 86
2020-11-16 00:00:00 13 10 Sudoeste 23 Oeste 0 -- -- 87
2020-11-15 23:00:00 12.8 13 Sudoeste 24 Oeste 0 -- -- 86
2020-11-15 22:00:00 13 18 Oeste 31 Oeste 0 -- -- 90
2020-11-15 21:00:00 12.9 18 Oeste 34 Noroeste 0 -- -- 94
2020-11-15 20:00:00 13.5 13 Noroeste 27 Oeste 2 -- -- 94
2020-11-15 19:00:00 13.9 10 Oeste 23 Oeste 1.4 -- -- 92
2020-11-15 18:00:00 14.2 18 Oeste 26 Oeste 0 -- -- 92
2020-11-15 17:00:00 14 21 Oeste 32 Oeste 0 -- -- 93
2020-11-15 16:00:00 15 12 Oeste 29 Noroeste 0 -- -- 90
2020-11-15 15:00:00 15.5 22 Noroeste 63 Noroeste 0 -- -- 88
2020-11-15 14:00:00 22.2 23 Oeste 43 Oeste 0 -- -- 55
2020-11-15 13:00:00 21 26 Oeste 48 Sudoeste 0 -- -- 56
2020-11-15 12:00:00 20.5 26 Sudoeste 59 Sudoeste 0 -- -- 57
2020-11-15 11:00:00 20 28 Sudoeste 55 Sudoeste 0 -- -- 58
2020-11-15 10:00:00 20 24 Sudoeste 51 Sudoeste 0 -- -- 57
2020-11-15 09:00:00 19.5 27 Sudoeste 53 Oeste 0 -- -- 57
2020-11-15 08:00:00 18.7 17 Oeste 43 Oeste 0 -- -- 60
2020-11-15 07:00:00 18.5 14 Sudoeste 55 Oeste 0 -- -- 60
2020-11-15 06:00:00 18.5 25 Sudoeste 57 Sur 0 -- -- 58
2020-11-15 05:00:00 18 22 Sudoeste 47 Sudoeste 0 -- -- 60
2020-11-15 04:00:00 17.8 24 Sudoeste 51 Sur 0 -- -- 61
2020-11-15 03:00:00 18 21 Oeste 54 Sudoeste 0 -- -- 60
2020-11-15 02:00:00 18.1 24 Sudoeste 46 Sudoeste 0 -- -- 59
2020-11-15 01:00:00 17.8 22 Sudoeste 40 Sudoeste 0 -- -- 59
2020-11-15 00:00:00 17.6 16 Sudoeste 46 Oeste 0 -- -- 58
2020-11-14 23:00:00 17.8 24 Sudoeste 53 Sudoeste 0 -- -- 56
2020-11-14 22:00:00 17.8 24 Sudoeste 51 Sudoeste 0 -- -- 56
2020-11-14 21:00:00 17.7 26 Sudoeste 47 Sudoeste 0 -- -- 56
2020-11-14 20:00:00 17.7 25 Sudoeste 40 Oeste 0 -- -- 56
2020-11-14 19:00:00 17.7 8 Sudoeste 27 Oeste 0 -- -- 56
2020-11-14 18:00:00 18.4 13 Sudoeste 40 Sudoeste 0 -- -- 54
2020-11-14 17:00:00 19.1 19 Sudoeste 44 Sudoeste 0 -- -- 52
2020-11-14 16:00:00 19.8 22 Sudoeste 52 Sudoeste 0 -- -- 50
2020-11-14 15:00:00 19.8 27 Sudoeste 58 Sudoeste 0 -- -- 51
2020-11-14 14:00:00 19.7 27 Sudoeste 54 Sur 0 -- -- 50
2020-11-14 13:00:00 18.5 26 Sudoeste 63 Sudoeste 0 -- -- 51
2020-11-14 12:00:00 18.1 17 Oeste 38 Sudoeste 0 -- -- 53
2020-11-14 11:00:00 16.8 13 Sudoeste 43 Sur 0 -- -- 56
2020-11-14 10:00:00 15.4 8 Sudoeste 36 Sur 0 -- -- 59
2020-11-14 09:00:00 15 12 Sur 32 Sudoeste 0 -- -- 59
2020-11-14 08:00:00 14.4 6 Oeste 41 Sudeste 0 -- -- 61
2020-11-14 07:00:00 14.4 14 Sudoeste 52 Oeste 0 -- -- 62
2020-11-14 06:00:00 13.9 10 Sudoeste 50 Sudoeste 0 -- -- 64
2020-11-14 05:00:00 13.1 5 Sudoeste 31 Sur 0 -- -- 67
2020-11-14 04:00:00 13.4 4 Sudeste 25 Sudoeste 0 -- -- 64
2020-11-14 03:00:00 14.3 10 Sudoeste 28 Sudoeste 0 -- -- 61
2020-11-14 02:00:00 13.9 7 Sur 33 Sur 0 -- -- 63
2020-11-14 01:00:00 13.8 10 Sudeste 29 Sur 0 -- -- 65
2020-11-14 00:00:00 14.1 12 Sudeste 31 Sudoeste 0 -- -- 64
2020-11-13 23:00:00 14.8 7 Sur 26 Sudeste 0 -- -- 60
2020-11-13 22:00:00 14.4 2 Nordeste 8 Sudoeste 0 -- -- 63
2020-11-13 21:00:00 15 3 Sudoeste 15 Sudoeste 0 -- -- 60
2020-11-13 20:00:00 15.6 8 Sur 15 Sur 0 -- -- 59
2020-11-13 19:00:00 15.8 9 Sur 15 Sudeste 0 -- -- 62
2020-11-13 18:00:00 17.1 8 Sur 10 Sur 0 -- -- 59
2020-11-13 17:00:00 19.6 4 Sudeste 9 Este 0 -- -- 53
2020-11-13 16:00:00 20.7 2 Norte 12 Oeste 0 -- -- 51
2020-11-13 15:00:00 20.5 5 Noroeste 14 Oeste 0 -- -- 53
2020-11-13 14:00:00 20.3 6 Sudoeste 19 Sur 0 -- -- 52
2020-11-13 13:00:00 18.7 11 Oeste 22 Oeste 0 -- -- 56
2020-11-13 12:00:00 18 11 Oeste 25 Oeste 0 -- -- 55
2020-11-13 11:00:00 16.4 17 Oeste 34 Sudoeste 0 -- -- 59
2020-11-13 10:00:00 15.4 19 Sudoeste 32 Oeste 0 -- -- 61
2020-11-13 09:00:00 15.7 20 Sudoeste 35 Sudoeste 0 -- -- 58
2020-11-13 08:00:00 15.3 20 Sudoeste 34 Sudoeste 0 -- -- 58
2020-11-13 07:00:00 15 11 Oeste 48 Sudoeste 0 -- -- 58
2020-11-13 06:00:00 15.1 17 Sudoeste 35 Sur 0 -- -- 57
2020-11-13 05:00:00 15.6 4 Sur 21 Sudeste 0 -- -- 53
2020-11-13 04:00:00 15.9 10 Sur 31 Sur 0 -- -- 50
2020-11-13 03:00:00 16.3 11 Sur 30 Sur 0 -- -- 49
2020-11-13 02:00:00 16.3 9 Sur 20 Sur 0 -- -- 50
2020-11-13 01:00:00 16.5 6 Nordeste 21 Oeste 0 -- -- 50
2020-11-13 00:00:00 16.6 5 Nordeste 18 Nordeste 0 -- -- 50
2020-11-12 23:00:00 16.5 4 Norte 20 Sudeste 0 -- -- 50
2020-11-12 22:00:00 15.9 5 Nordeste 13 Este 0 -- -- 53
2020-11-12 21:00:00 16 2 Nordeste 14 Sudoeste 0 -- -- 55
2020-11-12 20:00:00 15.7 4 Sudoeste 10 Noroeste 0 -- -- 57
2020-11-12 19:00:00 15.5 5 Sur 10 Este 0 -- -- 59
2020-11-12 18:00:00 15.7 5 Sudeste 8 Sudeste 0 -- -- 57
2020-11-12 17:00:00 17.6 4 Sudeste 9 Sudeste 0 -- -- 52
2020-11-12 16:00:00 18.3 4 Sudeste 13 Sudeste 0 -- -- 52
2020-11-12 15:00:00 17.9 11 Sudeste 15 Sudeste 0 -- -- 63
2020-11-12 14:00:00 18.8 9 Este 15 Este 0 -- -- 67
2020-11-12 13:00:00 19.5 6 Este 18 Sur 0 -- -- 59
2020-11-12 12:00:00 18.5 2 Nordeste 15 Sur 0 -- -- 56
2020-11-12 11:00:00 17.5 4 Sur 21 Sur 0 -- -- 57
2020-11-12 10:00:00 16.2 9 Sur 22 Sur 0 -- -- 59
2020-11-12 09:00:00 15.3 7 Sudoeste 21 Sur 0 -- -- 61
2020-11-12 08:00:00 15.2 8 Sudoeste 24 Sudoeste 0 -- -- 60
2020-11-12 07:00:00 15.3 13 Sudoeste 24 Sudoeste 0 -- -- 59
2020-11-12 06:00:00 15.3 12 Sudoeste 23 Sudoeste 0 -- -- 58
2020-11-12 05:00:00 15.2 13 Sudoeste 27 Sudoeste 0 -- -- 58
2020-11-12 04:00:00 15.7 12 Sudoeste 25 Oeste 0 -- -- 56
2020-11-12 03:00:00 16 15 Sudoeste 25 Sudoeste 0 -- -- 53
2020-11-12 02:00:00 16.3 16 Sudoeste 34 Sudoeste 0 -- -- 50
2020-11-12 01:00:00 16.2 19 Sudoeste 36 Sudoeste 0 -- -- 52
2020-11-12 00:00:00 16.1 19 Sudoeste 37 Sudoeste 0 -- -- 53
2020-11-11 23:00:00 16.1 19 Sudoeste 41 Sudoeste 0 -- -- 54
2020-11-11 22:00:00 16 19 Oeste 39 Sudoeste 0 -- -- 55
2020-11-11 21:00:00 16.2 17 Sudoeste 37 Oeste 0 -- -- 55
2020-11-11 20:00:00 16.5 20 Sudoeste 36 Sudoeste 0 -- -- 53
2020-11-11 19:00:00 17.1 20 Sudoeste 35 Oeste 0 -- -- 50
2020-11-11 18:00:00 17.4 16 Sudoeste 35 Sudoeste 0 -- -- 49
2020-11-11 17:00:00 17.8 17 Sudoeste 32 Sudoeste 0 -- -- 51
2020-11-11 16:00:00 18.4 14 Sudoeste 33 Sudoeste 0 -- -- 50
2020-11-11 15:00:00 18.3 13 Sudoeste 41 Sudoeste 0 -- -- 50
2020-11-11 14:00:00 18.7 17 Sudoeste 33 Sudoeste 0 -- -- 50
2020-11-11 13:00:00 17.6 10 Sudoeste 37 Sudoeste 0 -- -- 53
2020-11-11 12:00:00 17 14 Sudoeste 39 Sudoeste 0 -- -- 54
2020-11-11 11:00:00 16.4 15 Sudoeste 40 Oeste 0 -- -- 55
2020-11-11 10:00:00 14.9 18 Oeste 43 Sudoeste 0 -- -- 59
2020-11-11 09:00:00 14.3 11 Oeste 35 Sur 0 -- -- 63
2020-11-11 08:00:00 13.4 8 Sudeste 17 Sudoeste 0 -- -- 68
2020-11-11 07:00:00 12.9 5 Sur 12 Sudeste 0 -- -- 71
2020-11-11 06:00:00 13.5 9 Sur 23 Sudoeste 0 -- -- 71
2020-11-11 05:00:00 13.8 6 Sur 23 Sur 0 -- -- 71
2020-11-11 04:00:00 13.4 7 Sur 22 Oeste 0 -- -- 74
2020-11-11 03:00:00 12.3 3 Nordeste 14 Sudoeste 0 -- -- 80
2020-11-11 02:00:00 12.2 3 Sudeste 8 Sudeste 0 -- -- 84
2020-11-11 01:00:00 12 0 Calma 6 Sudeste 0 -- -- 86
2020-11-11 00:00:00 11.9 4 Sudeste 8 Este 0 -- -- 88
2020-11-10 23:00:00 12.3 7 Sudeste 13 Sudeste 0 -- -- 90
2020-11-10 22:00:00 12.3 8 Sudeste 12 Sudeste 0 -- -- 91
2020-11-10 21:00:00 12.2 5 Sudeste 9 Sudeste 0 -- -- 91
2020-11-10 20:00:00 12.2 5 Sudeste 11 Este 0 -- -- 90
2020-11-10 19:00:00 12.4 6 Sudeste 10 Sur 0 -- -- 90
2020-11-10 18:00:00 13.1 5 Sudeste 7 Sudeste 0 -- -- 88
2020-11-10 17:00:00 14.3 3 Sudeste 7 Sudeste 0 -- -- 84
2020-11-10 16:00:00 15.3 2 Este 7 Este 0 -- -- 84
2020-11-10 15:00:00 15 2 Sudeste 6 Este 0 -- -- 88
2020-11-10 14:00:00 14.1 4 Sur 8 Sur 0 -- -- 90
2020-11-10 13:00:00 13.5 4 Sur 12 Sudeste 0 -- -- 93
2020-11-10 12:00:00 13.6 6 Este 12 Nordeste 1.2 -- -- 92
2020-11-10 11:00:00 14.2 3 Oeste 8 Oeste 0 -- -- 91
2020-11-10 10:00:00 13.5 5 Oeste 9 Oeste 0 -- -- 92
2020-11-10 09:00:00 13.2 4 Oeste 6 Oeste 0 -- -- 93
2020-11-10 08:00:00 13.2 4 Oeste 11 Oeste 0 -- -- 93
2020-11-10 07:00:00 13.2 8 Oeste 16 Oeste 1.2 -- -- 93
2020-11-10 06:00:00 13.1 4 Sudoeste 19 Oeste 3 -- -- 92
2020-11-10 05:00:00 14.2 5 Sudoeste 9 Oeste 0.2 -- -- 91
2020-11-10 04:00:00 14.5 3 Sudoeste 9 Oeste 0 -- -- 88
2020-11-10 03:00:00 14.1 7 Oeste 15 Oeste 0 -- -- 86
2020-11-10 02:00:00 14.1 10 Oeste 17 Oeste 0 -- -- 84
2020-11-10 01:00:00 13.7 8 Oeste 22 Oeste 0 -- -- 82
2020-11-10 00:00:00 13.8 12 Sudoeste 17 Sudoeste 0 -- -- 80
2020-11-09 23:00:00 14.3 9 Sudoeste 13 Sudoeste 0 -- -- 70
2020-11-09 22:00:00 14.6 10 Oeste 19 Oeste 0 -- -- 68
2020-11-09 21:00:00 14.9 0 Calma 5 Sudoeste 0 -- -- 69
2020-11-09 20:00:00 15.2 2 Sudoeste 6 Oeste 0 -- -- 70
2020-11-09 19:00:00 15.4 2 Norte 4 Norte 0 -- -- 70
2020-11-09 18:00:00 16.5 0 Calma 3 Oeste 0 -- -- 68
2020-11-09 17:00:00 18.1 0 Calma 12 Noroeste 0 -- -- 67
2020-11-09 16:00:00 19.1 3 Nordeste 19 Oeste 0 -- -- 55
2020-11-09 15:00:00 20.6 8 Oeste 25 Oeste 0 -- -- 51
2020-11-09 14:00:00 20 14 Oeste 28 Oeste 0 -- -- 51
2020-11-09 13:00:00 19.5 14 Oeste 31 Oeste 0 -- -- 52
2020-11-09 12:00:00 18.6 17 Sudoeste 32 Sudoeste 0 -- -- 54
2020-11-09 11:00:00 17.2 11 Sudoeste 25 Oeste 0 -- -- 58
2020-11-09 10:00:00 16.9 11 Sudoeste 30 Sudoeste 0 -- -- 59
2020-11-09 09:00:00 16.5 9 Sudoeste 32 Sur 0 -- -- 59
2020-11-09 08:00:00 16.7 13 Sur 39 Oeste 0 -- -- 57
2020-11-09 07:00:00 16.9 17 Oeste 37 Oeste 0 -- -- 57
2020-11-09 06:00:00 17 7 Sudoeste 23 Sur 0 -- -- 57
2020-11-09 05:00:00 17.2 11 Sur 27 Sur 0 -- -- 56
2020-11-09 04:00:00 16.8 6 Sur 28 Sudeste 0 -- -- 57
2020-11-09 03:00:00 17 5 Norte 28 Sudoeste 0 -- -- 56
2020-11-09 02:00:00 17.3 7 Sudeste 33 Sur 0 -- -- 56
2020-11-09 01:00:00 17.2 9 Sur 40 Sudoeste 0 -- -- 57
2020-11-09 00:00:00 17.6 10 Oeste 25 Sur 0 -- -- 55
2020-11-08 23:00:00 17.6 5 Nordeste 28 Sur 0 -- -- 56
2020-11-08 22:00:00 17.4 7 Sudoeste 17 Sudoeste 0 -- -- 57
2020-11-08 21:00:00 17.4 4 Este 23 Sur 0 -- -- 58
2020-11-08 20:00:00 17.4 8 Sudoeste 21 Sur 0 -- -- 60
2020-11-08 19:00:00 17.4 4 Sudoeste 26 Sudeste 0 -- -- 60
2020-11-08 18:00:00 17.2 8 Sudeste 18 Este 0 -- -- 61
2020-11-08 17:00:00 18.3 7 Sudeste 20 Sudeste 0 -- -- 58
2020-11-08 16:00:00 20.5 5 Sudeste 23 Sur 0 -- -- 52
2020-11-08 15:00:00 20 13 Sudeste 36 Este 0 -- -- 53
2020-11-08 14:00:00 20.1 17 Sur 31 Sudeste 0 -- -- 51
2020-11-08 13:00:00 20 10 Sur 30 Sudeste 0 -- -- 50
2020-11-08 12:00:00 19.7 13 Sur 31 Sudeste 0 -- -- 50
2020-11-08 11:00:00 18.9 6 Noroeste 31 Sur 0 -- -- 55
2020-11-08 10:00:00 17.1 11 Sur 39 Sur 0 -- -- 55
2020-11-08 09:00:00 17.2 11 Sudoeste 32 Sudoeste 0 -- -- 53
2020-11-08 08:00:00 17.4 17 Sudoeste 44 Sudoeste 0 -- -- 53
2020-11-08 07:00:00 17.1 18 Oeste 37 Sudoeste 0 -- -- 55
2020-11-08 06:00:00 16.3 10 Sudoeste 33 Sur 0 -- -- 59
2020-11-08 05:00:00 16.4 11 Sudoeste 33 Sur 0 -- -- 59
2020-11-08 04:00:00 16.3 15 Sudoeste 35 Sudoeste 0 -- -- 60
2020-11-08 03:00:00 16.2 17 Oeste 35 Sudoeste 0 -- -- 62
2020-11-08 02:00:00 16.6 21 Oeste 39 Sudoeste 0 -- -- 64
2020-11-08 01:00:00 16.7 18 Oeste 37 Sudoeste 0 -- -- 62
2020-11-08 00:00:00 16.8 19 Oeste 35 Oeste 0 -- -- 61
2020-11-07 23:00:00 16.9 18 Sudoeste 29 Sudoeste 0 -- -- 62
2020-11-07 22:00:00 17.3 21 Oeste 35 Oeste 0 -- -- 60
2020-11-07 21:00:00 17.4 18 Sudoeste 34 Sudoeste 0 -- -- 60
2020-11-07 20:00:00 17.4 17 Sudoeste 31 Oeste 0 -- -- 61
2020-11-07 19:00:00 17.5 18 Sudoeste 31 Oeste 0 -- -- 61
2020-11-07 18:00:00 17.8 14 Sudoeste 25 Oeste 0 -- -- 63
2020-11-07 17:00:00 18.3 7 Sur 36 Sur 0 -- -- 65
2020-11-07 16:00:00 18 15 Oeste 26 Sur 0 -- -- 67
2020-11-07 15:00:00 18 10 Sudoeste 26 Sudoeste 0 -- -- 66
2020-11-07 14:00:00 17.7 6 Sur 20 Sudeste 0 -- -- 71
2020-11-07 13:00:00 17.2 4 Sudeste 12 Este 0 -- -- 78
2020-11-07 12:00:00 16.3 3 Sudeste 10 Sudeste 0 -- -- 83
2020-11-07 11:00:00 15.1 2 Oeste 8 Noroeste 0 -- -- 91
2020-11-07 10:00:00 15 3 Sudoeste 22 Sudeste 0.8 -- -- 91
2020-11-07 09:00:00 14.7 12 Sur 23 Sudoeste 5.8 -- -- 91
2020-11-07 08:00:00 16 10 Oeste 16 Sur 8 -- -- 88
2020-11-07 07:00:00 18.8 7 Sur 18 Sur 0.2 -- -- 70
2020-11-07 06:00:00 19.6 8 Sudeste 30 Sur 0 -- -- 63
2020-11-07 05:00:00 19.8 9 Sudeste 31 Sudeste 0 -- -- 61
2020-11-07 04:00:00 20 13 Sudeste 48 Sudeste 0 -- -- 60
2020-11-07 03:00:00 19.9 21 Sudeste 44 Sur 0 -- -- 60
2020-11-07 02:00:00 19.7 21 Sudeste 60 Sudeste 0 -- -- 61
2020-11-07 01:00:00 19.9 17 Sudeste 70 Sudeste 0 -- -- 60
2020-11-07 00:00:00 20.2 20 Sudeste 60 Sudeste 0 -- -- 59
2020-11-06 23:00:00 20.4 23 Sudeste 50 Sur 0 -- -- 58
2020-11-06 22:00:00 20.4 13 Sudeste 54 Sur 0 -- -- 58
2020-11-06 21:00:00 20.7 28 Sur 59 Sudeste 0 -- -- 56
2020-11-06 20:00:00 20.7 23 Sur 54 Sudeste 0 -- -- 57
2020-11-06 19:00:00 20.7 20 Sur 55 Sur 0 -- -- 57
2020-11-06 18:00:00 20.5 32 Sur 74 Sur 0 -- -- 58
2020-11-06 17:00:00 20.4 26 Sur 63 Sur 0 -- -- 58
2020-11-06 16:00:00 20.4 27 Sur 62 Sur 0 -- -- 58
2020-11-06 15:00:00 20.4 18 Sudeste 50 Sudeste 0 -- -- 60
2020-11-06 14:00:00 20.7 17 Sudeste 64 Sur 0 -- -- 59
2020-11-06 13:00:00 20 27 Sur -- -- -- -- -- 60
2020-11-06 12:00:00 -- -- -- -- -- -- -- -- --
2020-11-06 11:00:00 20.1 21 Sudeste 48 Sudeste 0 -- -- 60
2020-11-06 10:00:00 19.2 18 Sudeste 48 Sudeste 0 -- -- 62
2020-11-06 09:00:00 18.4 17 Sur 49 Sur 0 -- -- 64
2020-11-06 08:00:00 18.3 23 Sur 70 Sudoeste 0 -- -- 63
2020-11-06 07:00:00 18 27 Sur 59 Sur 0 -- -- 64
2020-11-06 06:00:00 17.7 16 Sudoeste 52 Sur 0 -- -- 66
2020-11-06 05:00:00 17.1 19 Sudeste 49 Sudeste 0 -- -- 68
2020-11-06 04:00:00 16.8 13 Sudeste 40 Sudeste 0 -- -- 69
2020-11-06 03:00:00 16.6 21 Sudeste 39 Este 0 -- -- 68
2020-11-06 02:00:00 14.8 8 Sudeste 16 Este 0 -- -- 74
2020-11-06 01:00:00 14.5 4 Sur 13 Este 0 -- -- 77
2020-11-06 00:00:00 14.9 6 Sudeste 14 Sudeste 0 -- -- 70
2020-11-05 23:00:00 14.1 9 Sudeste 20 Sudeste 0 -- -- 75
2020-11-05 22:00:00 13.1 8 Sudeste 13 Este 0 -- -- 81
2020-11-05 21:00:00 12.1 8 Este 12 Sudeste 0 -- -- 82
2020-11-05 20:00:00 12 5 Este 8 Este 0 -- -- 80
2020-11-05 19:00:00 12.7 4 Sudeste 12 Sudeste 0 -- -- 77
2020-11-05 18:00:00 12.7 5 Sur 9 Sudeste 0 -- -- 76
2020-11-05 17:00:00 13.6 6 Este 13 Este 0 -- -- 75
2020-11-05 16:00:00 14.5 10 Sudeste 15 Este 0 -- -- 70
2020-11-05 15:00:00 14.6 7 Este 14 Este 0 -- -- 69
2020-11-05 14:00:00 14.4 8 Este 15 Nordeste 0 -- -- 70
2020-11-05 13:00:00 13.2 6 Este 12 Este 0 -- -- 71
2020-11-05 12:00:00 13.2 5 Este 13 Este 0 -- -- 72
2020-11-05 11:00:00 12.5 8 Este 13 Este 0 -- -- 74
2020-11-05 10:00:00 11.6 8 Este 13 Este 0 -- -- 77
2020-11-05 09:00:00 9.4 6 Este 8 Este 0 -- -- 80
2020-11-05 08:00:00 8.4 6 Sudeste 10 Sudeste 0 -- -- 78
2020-11-05 07:00:00 8.4 5 Sur 6 Sur 0 -- -- 74
2020-11-05 06:00:00 8.5 0 Calma 5 Sudoeste 0 -- -- 74
2020-11-05 05:00:00 8.6 4 Oeste 6 Sudeste 0 -- -- 75
2020-11-05 04:00:00 9.2 4 Sudeste 10 Este 0 -- -- 76
2020-11-05 03:00:00 9.4 6 Sudeste 13 Este 0 -- -- 77
2020-11-05 02:00:00 9.5 6 Sudeste 15 Este 0 -- -- 76
2020-11-05 01:00:00 9.7 12 Este 30 Este 0 -- -- 75
2020-11-05 00:00:00 9.8 19 Este 34 Este 0 -- -- 74
2020-11-04 23:00:00 10.5 15 Este 38 Este 0 -- -- 74
2020-11-04 22:00:00 10.9 17 Este 36 Nordeste 0 -- -- 72
2020-11-04 21:00:00 11.1 13 Este 39 Nordeste 0 -- -- 71
2020-11-04 20:00:00 11.1 13 Este 36 Este 0 -- -- 70
2020-11-04 19:00:00 11 13 Este 37 Este 0 -- -- 69
2020-11-04 18:00:00 11 17 Este 37 Este 0 -- -- 68
2020-11-04 17:00:00 11.1 12 Este 36 Este 0 -- -- 69
2020-11-04 16:00:00 11.4 19 Este 35 Nordeste 0 -- -- 67
2020-11-04 15:00:00 11.5 16 Este 35 Nordeste 0 -- -- 72
2020-11-04 14:00:00 11.7 18 Este 32 Este 0 -- -- 72
2020-11-04 13:00:00 12.1 12 Este 28 Este 0 -- -- 69
2020-11-04 12:00:00 12.5 11 Este 28 Nordeste 0 -- -- 72
2020-11-04 11:00:00 12.4 10 Este 21 Nordeste 0 -- -- 76
2020-11-04 10:00:00 12.3 8 Este 15 Este 0.2 -- -- 78
2020-11-04 09:00:00 9.3 6 Sudeste 19 Sudeste 0 -- -- 87
2020-11-04 08:00:00 8.4 10 Sudeste 19 Sudeste 0 -- -- 90
2020-11-04 07:00:00 8.4 6 Sudeste 12 Sur 0.4 -- -- 92
2020-11-04 06:00:00 8.5 6 Sur 13 Sudeste 0 -- -- 90
2020-11-04 05:00:00 8.1 7 Sudoeste 18 Sudoeste 0 -- -- 91
2020-11-04 04:00:00 8.4 5 Sudoeste 13 Sudoeste 1.2 -- -- 91
2020-11-04 03:00:00 8.3 6 Sudoeste 20 Noroeste 0.8 -- -- 91
2020-11-04 02:00:00 8.6 8 Sudoeste 14 Oeste 0 -- -- 87
2020-11-04 01:00:00 8.9 7 Sur 13 Sudoeste 0 -- -- 85
2020-11-04 00:00:00 8.6 5 Sudoeste 26 Oeste 1 -- -- 89
2020-11-03 23:00:00 9.3 8 Sudoeste 23 Sudoeste 0 -- -- 82
2020-11-03 22:00:00 9.3 8 Oeste 13 Sudoeste 0 -- -- 86
2020-11-03 21:00:00 9.5 8 Sudoeste 18 Noroeste 0.4 -- -- 85
2020-11-03 20:00:00 10.5 8 Oeste 22 Oeste 0 -- -- 84
2020-11-03 19:00:00 10.4 6 Oeste 18 Sudoeste 0 -- -- 85
2020-11-03 18:00:00 10.6 10 Oeste 21 Oeste 0.6 -- -- 84
2020-11-03 17:00:00 11.6 10 Oeste 31 Noroeste 0 -- -- 82
2020-11-03 16:00:00 11.5 9 Noroeste 26 Noroeste 0.2 -- -- 85
2020-11-03 15:00:00 11.5 10 Oeste 29 Oeste 0.4 -- -- 89
2020-11-03 14:00:00 11.3 14 Noroeste 37 Noroeste 1.6 -- -- 93
2020-11-03 13:00:00 12 12 Noroeste 26 Oeste 0.8 -- -- 92
2020-11-03 12:00:00 12.3 13 Oeste 27 Noroeste 0 -- -- 88
2020-11-03 11:00:00 13 15 Oeste 22 Oeste 0 -- -- 84
2020-11-03 10:00:00 12.3 12 Oeste 21 Oeste 0 -- -- 85
2020-11-03 09:00:00 11.1 13 Oeste 29 Sudoeste 0 -- -- 89
2020-11-03 08:00:00 10.6 12 Sudoeste 19 Oeste 0.4 -- -- 94
2020-11-03 07:00:00 10.8 14 Oeste 19 Oeste 0 -- -- 94
2020-11-03 06:00:00 10.8 6 Sudoeste 10 Sudoeste 0.2 -- -- 94
2020-11-03 05:00:00 10.9 7 Sudoeste 14 Sudoeste 0.6 -- -- 95
2020-11-03 04:00:00 11.2 8 Oeste 22 Oeste 1 -- -- 95
2020-11-03 03:00:00 11.6 10 Noroeste 20 Oeste 3.8 -- -- 95
2020-11-03 02:00:00 11.5 6 Oeste 14 Oeste 0.4 -- -- 94
2020-11-03 01:00:00 11.5 5 Oeste 20 Oeste 0.2 -- -- 95
2020-11-03 00:00:00 12.2 13 Oeste 21 Oeste 0.8 -- -- 93
2020-11-02 23:00:00 12.4 4 Oeste 15 Noroeste 0.4 -- -- 93
2020-11-02 22:00:00 12.8 6 Noroeste 14 Oeste 0 -- -- 92
2020-11-02 21:00:00 13.5 12 Noroeste 24 Noroeste 0 -- -- 87
2020-11-02 20:00:00 14.2 7 Oeste 28 Oeste 0 -- -- 80
2020-11-02 19:00:00 13.8 18 Oeste 45 Oeste 0 -- -- 81
2020-11-02 18:00:00 15.1 18 Oeste 34 Oeste 0 -- -- 79
2020-11-02 17:00:00 15 17 Noroeste 45 Noroeste 0 -- -- 89
2020-11-02 16:00:00 16.1 26 Noroeste 87 Noroeste 0 -- -- 89
2020-11-02 15:00:00 23.9 14 Oeste 29 Sudoeste 0 -- -- 53
2020-11-02 14:00:00 23.3 19 Sudoeste 32 Sudoeste 0 -- -- 57
2020-11-02 13:00:00 22.8 17 Sudoeste 28 Sudoeste 0 -- -- 57
2020-11-02 12:00:00 21.2 14 Sudoeste 32 Sudoeste 0 -- -- 61
2020-11-02 11:00:00 20.1 14 Sudoeste 29 Sudoeste 0 -- -- 65
2020-11-02 10:00:00 19.6 14 Sudoeste 28 Sudoeste 0 -- -- 66
2020-11-02 09:00:00 19.4 11 Oeste 24 Oeste 0 -- -- 67
2020-11-02 08:00:00 19.1 4 Sudoeste 9 Sudoeste 0 -- -- 66
2020-11-02 07:00:00 19 3 Sur 12 Sudeste 0 -- -- 67
2020-11-02 06:00:00 19.1 2 Este 7 Oeste 0 -- -- 66
2020-11-02 05:00:00 19.8 0 Calma 9 Sur 0 -- -- 63
2020-11-02 04:00:00 20.3 7 Sudoeste 14 Sudoeste 0 -- -- 61
2020-11-02 03:00:00 20.4 5 Oeste 15 Sudoeste 0 -- -- 60
2020-11-02 02:00:00 20.8 8 Oeste 27 Oeste 0 -- -- 60
2020-11-02 01:00:00 21.1 12 Sudoeste 38 Oeste 0 -- -- 59
2020-11-02 00:00:00 21.3 18 Sudoeste 36 Sudoeste 0 -- -- 58
2020-11-01 23:00:00 21.2 10 Sudoeste 26 Oeste 0 -- -- 59
2020-11-01 22:00:00 21.3 13 Oeste 27 Noroeste 0 -- -- 59
2020-11-01 21:00:00 21.6 14 Sudoeste 36 Sudoeste 0 -- -- 58
2020-11-01 20:00:00 21.6 19 Sudoeste 33 Sudoeste 0 -- -- 58
2020-11-01 19:00:00 21.5 13 Sudoeste 42 Sudoeste 0 -- -- 58
2020-11-01 18:00:00 22.2 10 Sudoeste 25 Oeste 0 -- -- 57
2020-11-01 17:00:00 23.6 6 Este 16 Oeste 0 -- -- 55
2020-11-01 16:00:00 23.9 6 Sudoeste 20 Sur 0 -- -- 53
2020-11-01 15:00:00 24.4 8 Sudoeste 22 Sudoeste 0 -- -- 52
2020-11-01 14:00:00 24.5 10 Sudoeste 28 Oeste 0 -- -- 54
2020-11-01 13:00:00 23.4 12 Sudoeste 30 Sudoeste 0 -- -- 53
2020-11-01 12:00:00 23 15 Sudoeste 42 Sudoeste 0 -- -- 54
2020-11-01 11:00:00 21.2 20 Sudoeste 41 Oeste 0 -- -- 56
2020-11-01 10:00:00 20.6 26 Sudoeste 42 Sudoeste 0 -- -- 56
2020-11-01 09:00:00 20.4 22 Sudoeste 41 Oeste 0 -- -- 56
2020-11-01 08:00:00 20.3 23 Sudoeste 47 Oeste 0 -- -- 55
2020-11-01 07:00:00 20 22 Sudoeste 39 Oeste 0 -- -- 57
2020-11-01 06:00:00 19.9 24 Sudoeste 39 Sudoeste 0 -- -- 57
2020-11-01 05:00:00 20.1 23 Sudoeste 39 Oeste 0 -- -- 56
2020-11-01 04:00:00 20 22 Sudoeste 35 Sudoeste 0 -- -- 57
2020-11-01 03:00:00 19.4 9 Oeste 24 Oeste 0 -- -- 59
2020-11-01 02:00:00 19.4 5 Oeste 15 Oeste 0 -- -- 59
2020-11-01 01:00:00 19.1 3 Norte 20 Sudoeste 0 -- -- 60
2020-11-01 00:00:00 19.5 6 Sudoeste 28 Sudoeste 0 -- -- 59
2020-10-31 23:00:00 19.6 17 Sudoeste 33 Sudoeste 0 -- -- 59
2020-10-31 22:00:00 20 19 Sudoeste 40 Sudoeste 0 -- -- 58
2020-10-31 21:00:00 20.5 21 Oeste 44 Oeste 0 -- -- 56
2020-10-31 20:00:00 21.2 14 Sudoeste 33 Sudoeste 0 -- -- 52
2020-10-31 19:00:00 21.5 14 Sudoeste 32 Oeste 0 -- -- 53
2020-10-31 18:00:00 22 15 Sudoeste 28 Oeste 0 -- -- 51
2020-10-31 17:00:00 23.4 15 Sudoeste 28 Sudoeste 0 -- -- 46
2020-10-31 16:00:00 24.1 12 Sudoeste 31 Oeste 0 -- -- 46
2020-10-31 15:00:00 24.3 12 Sudoeste 34 Sudoeste 0 -- -- 44
2020-10-31 14:00:00 23.4 13 Oeste 37 Sudoeste 0 -- -- 45
2020-10-31 13:00:00 23.2 16 Oeste 32 Sudoeste 0 -- -- 47
2020-10-31 12:00:00 22.4 14 Sudoeste 37 Oeste 0 -- -- 45
2020-10-31 11:00:00 21.5 9 Sudoeste 41 Sudoeste 0 -- -- 47
2020-10-31 10:00:00 20.7 20 Sudoeste 37 Sudoeste 0 -- -- 46
2020-10-31 09:00:00 19.7 21 Sudoeste 37 Oeste 0 -- -- 47
2020-10-31 08:00:00 19.4 21 Sudoeste 36 Sudoeste 0 -- -- 49
2020-10-31 07:00:00 18.9 17 Oeste 26 Oeste 0 -- -- 53
2020-10-31 06:00:00 18.2 8 Sudoeste 19 Sur 0 -- -- 56
2020-10-31 05:00:00 18.4 12 Sudoeste 26 Sudoeste 0 -- -- 56
2020-10-31 04:00:00 18.3 12 Sudoeste 28 Sudoeste 0 -- -- 56
2020-10-31 03:00:00 18 6 Sur 18 Sur 0 -- -- 58
2020-10-31 02:00:00 16.1 5 Noroeste 16 Sudoeste 0 -- -- 73
2020-10-31 01:00:00 13 6 Sudeste 16 Sudeste 0 -- -- 93
2020-10-31 00:00:00 12.4 3 Sur 13 Sudeste 0 -- -- 93
2020-10-30 23:00:00 12.7 7 Sudeste 12 Sudeste 0 -- -- 92
2020-10-30 22:00:00 12.8 2 Sudeste 5 Sur 0 -- -- 91
2020-10-30 21:00:00 12.8 2 Sur 5 Sudeste 0 -- -- 92
2020-10-30 20:00:00 13.1 2 Sudeste 6 Sudeste 0 -- -- 91
2020-10-30 19:00:00 13.4 4 Sur 6 Sudeste 0 -- -- 90
2020-10-30 18:00:00 14.5 2 Sur 4 Sur 0 -- -- 86
2020-10-30 17:00:00 15.5 0 Calma 5 Este 0 -- -- 84
2020-10-30 16:00:00 16.1 2 Norte 7 Nordeste 0 -- -- 84
2020-10-30 15:00:00 16.5 3 Norte 8 Nordeste 0 -- -- 83
2020-10-30 14:00:00 16.4 3 Nordeste 6 Norte 0 -- -- 84
2020-10-30 13:00:00 16.4 3 Norte 8 Este 0 -- -- 83
2020-10-30 12:00:00 16.3 5 Este 8 Este 0 -- -- 84
2020-10-30 11:00:00 15.3 3 Nordeste 5 Norte 0 -- -- 86
2020-10-30 10:00:00 15 0 Calma 5 Norte 0 -- -- 90
2020-10-30 09:00:00 13.8 0 Calma 5 Oeste 0 -- -- 94
2020-10-30 08:00:00 13.3 2 Oeste 5 Noroeste 0 -- -- 93
2020-10-30 07:00:00 13.3 2 Oeste 4 Sudoeste 0 -- -- 91
2020-10-30 06:00:00 13.7 2 Oeste 11 Oeste 0 -- -- 86
2020-10-30 05:00:00 15.7 4 Sudoeste 15 Sudoeste 0 -- -- 64
2020-10-30 04:00:00 16.4 8 Sudoeste 17 Oeste 0 -- -- 63
2020-10-30 03:00:00 15.9 6 Sudoeste 12 Sur 0 -- -- 65
2020-10-30 02:00:00 15.4 3 Sur 8 Sudoeste 0 -- -- 69
2020-10-30 01:00:00 13.7 3 Sudeste 7 Sudeste 0 -- -- 83
2020-10-30 00:00:00 13.4 3 Noroeste 5 Oeste 0 -- -- 85
2020-10-29 23:00:00 13.6 0 Calma 5 Sur 0 -- -- 85
2020-10-29 22:00:00 13.7 3 Sudeste 8 Este 0 -- -- 87
2020-10-29 21:00:00 13.6 4 Sudeste 9 Sudeste 0 -- -- 86
2020-10-29 20:00:00 13.9 6 Sudeste 9 Sudeste 0 -- -- 85
2020-10-29 19:00:00 14.1 5 Sudeste 8 Sudeste 0 -- -- 83
2020-10-29 18:00:00 15.5 6 Sudeste 9 Este 0 -- -- 78
2020-10-29 17:00:00 17.3 6 Este 10 Este 0 -- -- 72
2020-10-29 16:00:00 18 5 Este 14 Sudeste 0 -- -- 72
2020-10-29 15:00:00 18.3 7 Este 14 Sudeste 0 -- -- 71
2020-10-29 14:00:00 18.3 9 Este 15 Este 0 -- -- 71
2020-10-29 13:00:00 18.5 8 Este 12 Este 0 -- -- 68
2020-10-29 12:00:00 18.3 4 Noroeste 17 Oeste 0 -- -- 61
2020-10-29 11:00:00 18.1 5 Sudeste 9 Sudeste 0 -- -- 61
2020-10-29 10:00:00 16.8 3 Sudeste 10 Sur 0 -- -- 70
2020-10-29 09:00:00 14.8 5 Sudoeste 12 Sur 0 -- -- 69
2020-10-29 08:00:00 13.9 5 Sur 8 Sur 0 -- -- 68
2020-10-29 07:00:00 14.2 5 Sur 12 Sur 0 -- -- 66
2020-10-29 06:00:00 13.9 7 Sudoeste 10 Sudoeste 0 -- -- 68
2020-10-29 05:00:00 14.8 6 Sur 9 Sur 0 -- -- 65
2020-10-29 04:00:00 14.4 2 Norte 8 Sudoeste 0 -- -- 68
2020-10-29 03:00:00 14.6 6 Sur 11 Sudoeste 0 -- -- 66
2020-10-29 02:00:00 14.5 7 Sur 12 Sur 0 -- -- 65
2020-10-29 01:00:00 14.4 4 Sur 6 Sur 0 -- -- 65
2020-10-29 00:00:00 14.4 6 Sur 10 Sur 0 -- -- 64
2020-10-28 23:00:00 14.5 8 Sudoeste 17 Sudoeste 0 -- -- 63
2020-10-28 22:00:00 14.6 7 Sudoeste 12 Sudoeste 0 -- -- 62
2020-10-28 21:00:00 14.7 8 Sudoeste 13 Oeste 0 -- -- 61
2020-10-28 20:00:00 15.1 8 Oeste 16 Oeste 0 -- -- 61
2020-10-28 19:00:00 15.4 8 Sudoeste 18 Sudoeste 0 -- -- 61
2020-10-28 18:00:00 15.4 8 Sudoeste 15 Sudoeste 0 -- -- 63
2020-10-28 17:00:00 15.6 9 Oeste 14 Sudoeste 0 -- -- 68
2020-10-28 16:00:00 15.8 8 Oeste 16 Oeste 0 -- -- 69
2020-10-28 15:00:00 15.9 5 Noroeste 10 Oeste 0 -- -- 73
2020-10-28 14:00:00 16.1 6 Noroeste 20 Oeste 0 -- -- 69
2020-10-28 13:00:00 16.3 8 Oeste 17 Oeste 0 -- -- 73
2020-10-28 12:00:00 16.1 5 Oeste 10 Oeste 0 -- -- 76
2020-10-28 11:00:00 15.1 3 Oeste 10 Sudoeste 0 -- -- 83
2020-10-28 10:00:00 14.6 8 Oeste 14 Sudoeste 0 -- -- 87
2020-10-28 09:00:00 13.7 9 Sudoeste 13 Sudoeste 0.2 -- -- 91
2020-10-28 08:00:00 13.3 3 Oeste 9 Sudoeste 0 -- -- 93
2020-10-28 07:00:00 13.1 7 Oeste 26 Oeste 0 -- -- 93
2020-10-28 06:00:00 13.7 13 Noroeste 24 Noroeste 0 -- -- 89
2020-10-28 05:00:00 14 9 Sudoeste 14 Sudoeste 0 -- -- 87
2020-10-28 04:00:00 13.9 3 Oeste 15 Noroeste 0 -- -- 91
2020-10-28 03:00:00 14.2 7 Noroeste 15 Oeste 0 -- -- 90
2020-10-28 02:00:00 14.9 5 Oeste 15 Sudoeste 0 -- -- 70
2020-10-28 01:00:00 15.2 10 Sudoeste 18 Sudoeste 0 -- -- 69
2020-10-28 00:00:00 15.7 7 Sudoeste 35 Sudoeste 0 -- -- 67